Time;durP1;ratioP1;P1;durP2;ratioP2;P2;SDS_P1;SDS_P2;PMS_P1;PMS_P2;Temp;Humidity;BMP_temperature;BMP_pressure;BME280_temperature;BME280_humidity;BME280_pressure;Samples;Min_cycle;Max_cycle;Signal;HPM_P1;HPM_P2
2023/05/22 00:02:24;;;;;;;4.75;2.88;;;21.10;67.60;;;;;;6182716;23;20100;-72
2023/05/22 00:04:50;;;;;;;4.90;3.08;;;21.10;67.60;;;;;;6182253;23;20092;-73
2023/05/22 00:07:15;;;;;;;4.15;2.50;;;21.10;67.60;;;;;;6182380;23;20415;-73
2023/05/22 00:09:41;;;;;;;11.50;3.17;;;21.10;67.60;;;;;;6182426;23;20009;-72
2023/05/22 00:12:07;;;;;;;5.85;3.83;;;21.00;67.70;;;;;;6155732;23;20096;-70
2023/05/22 00:14:32;;;;;;;4.50;2.88;;;21.00;67.70;;;;;;6181916;23;20036;-70
2023/05/22 00:16:59;;;;;;;4.55;2.72;;;21.00;67.80;;;;;;6181615;23;20029;-70
2023/05/22 00:19:24;;;;;;;4.57;2.63;;;20.90;67.70;;;;;;6181658;23;20407;-69
2023/05/22 00:21:50;;;;;;;12.20;3.13;;;20.90;67.80;;;;;;6182439;23;20092;-70
2023/05/22 00:24:16;;;;;;;4.30;2.72;;;20.90;67.80;;;;;;6182456;23;20013;-70
2023/05/22 00:26:42;;;;;;;5.95;2.90;;;20.90;68.00;;;;;;6182647;23;20324;-70
2023/05/22 00:29:08;;;;;;;4.88;3.47;;;20.90;67.90;;;;;;6155615;23;20382;-70
2023/05/22 00:31:33;;;;;;;4.57;2.60;;;20.90;67.90;;;;;;6182700;23;20089;-69
2023/05/22 00:33:59;;;;;;;4.40;2.78;;;20.90;67.90;;;;;;6154381;23;20040;-69
2023/05/22 00:36:25;;;;;;;5.22;2.97;;;20.90;68.10;;;;;;6155977;23;20005;-70
2023/05/22 00:38:50;;;;;;;4.65;2.60;;;20.80;67.90;;;;;;6181644;23;20013;-69
2023/05/22 00:41:16;;;;;;;6.30;2.70;;;20.80;67.90;;;;;;6182840;23;20009;-69
2023/05/22 00:43:43;;;;;;;3.75;2.50;;;20.80;68.10;;;;;;6154702;23;20024;-69
2023/05/22 00:46:11;;;;;;;4.60;2.72;;;20.70;68.00;;;;;;6181147;23;20331;-69
2023/05/22 00:48:37;;;;;;;4.70;3.00;;;20.70;68.00;;;;;;6181434;23;20107;-68
2023/05/22 00:51:03;;;;;;;4.30;2.70;;;20.60;68.00;;;;;;6181804;23;20013;-69
2023/05/22 00:53:30;;;;;;;3.47;2.58;;;20.60;68.10;;;;;;6153968;23;20009;-69
2023/05/22 00:55:57;;;;;;;4.82;2.92;;;20.60;68.10;;;;;;6183568;23;20011;-69
2023/05/22 00:58:25;;;;;;;16.67;3.50;;;20.60;68.20;;;;;;6154511;23;20091;-69
2023/05/22 01:00:51;;;;;;;4.25;2.63;;;20.50;68.20;;;;;;6182363;23;20036;-69
2023/05/22 01:03:18;;;;;;;4.95;2.80;;;20.50;68.20;;;;;;6180595;23;20327;-69
2023/05/22 01:05:44;;;;;;;7.05;2.45;;;20.50;68.20;;;;;;6182142;23;20427;-69
2023/05/22 01:08:10;;;;;;;6.15;2.60;;;20.40;68.20;;;;;;6181933;23;20136;-69
2023/05/22 01:10:38;;;;;;;5.03;2.85;;;20.40;68.30;;;;;;6182139;23;20454;-68
2023/05/22 01:13:23;;;;;;;4.90;2.97;;;20.30;68.20;;;;;;6181056;23;20432;-68
2023/05/22 01:16:02;;;;;;;5.57;2.85;;;20.30;68.30;;;;;;6181929;23;20016;-68
2023/05/22 01:18:38;;;;;;;9.02;3.30;;;20.30;68.30;;;;;;6154507;23;20009;-68
2023/05/22 01:21:23;;;;;;;3.70;2.70;;;20.20;68.30;;;;;;6182353;23;20009;-69
2023/05/22 01:24:10;;;;;;;6.95;2.85;;;20.20;68.50;;;;;;6181544;23;20489;-69
2023/05/22 01:26:41;;;;;;;4.93;2.80;;;20.20;68.50;;;;;;6181530;23;20215;-69
2023/05/22 01:29:40;;;;;;;4.15;3.00;;;20.10;68.60;;;;;;6180462;23;20102;-69
2023/05/22 01:32:09;;;;;;;5.25;2.83;;;20.10;68.60;;;;;;6110166;23;20009;-69
2023/05/22 01:34:37;;;;;;;4.53;2.65;;;20.00;68.70;;;;;;6180895;23;20060;-69
2023/05/22 01:37:04;;;;;;;6.43;3.25;;;20.00;68.80;;;;;;6155147;23;20015;-69
2023/05/22 01:39:30;;;;;;;4.80;3.05;;;20.00;68.80;;;;;;6180871;23;20431;-70
2023/05/22 01:41:56;;;;;;;5.40;2.80;;;19.90;68.80;;;;;;6180404;23;20009;-69
2023/05/22 01:44:22;;;;;;;4.78;3.20;;;20.00;68.80;;;;;;6179461;23;20324;-69
2023/05/22 01:46:48;;;;;;;7.35;3.03;;;19.90;68.80;;;;;;6181336;23;20079;-68
2023/05/22 01:49:14;;;;;;;4.95;2.97;;;19.90;68.80;;;;;;6181066;23;20009;-68
2023/05/22 01:52:11;;;;;;;4.00;2.50;;;19.80;69.00;;;;;;6182122;23;20001;-68
2023/05/22 01:54:49;;;;;;;4.75;2.42;;;19.80;69.00;;;;;;6181214;23;20027;-67
2023/05/22 01:57:29;;;;;;;15.38;3.47;;;19.80;68.90;;;;;;6155437;23;20390;-67
2023/05/22 02:00:08;;;;;;;4.90;3.17;;;19.80;69.00;;;;;;6180594;23;20053;-67
2023/05/22 02:02:36;;;;;;;6.22;2.78;;;19.70;69.50;;;;;;6154244;23;20132;-68
2023/05/22 02:05:04;;;;;;;4.13;2.75;;;19.70;69.00;;;;;;6181273;23;20020;-67
2023/05/22 02:07:32;;;;;;;5.22;3.25;;;19.60;69.10;;;;;;6181718;23;20032;-67
2023/05/22 02:10:00;;;;;;;4.45;2.75;;;19.60;69.10;;;;;;6179923;23;20013;-66
2023/05/22 02:12:26;;;;;;;4.93;2.70;;;19.60;69.20;;;;;;6180683;23;20092;-67
2023/05/22 02:14:52;;;;;;;5.93;3.33;;;19.60;69.20;;;;;;6180401;23;20009;-66
2023/05/22 02:17:19;;;;;;;4.70;2.70;;;19.50;69.20;;;;;;6182382;23;20067;-67
2023/05/22 02:19:44;;;;;;;2.95;2.28;;;19.50;69.20;;;;;;6180305;23;20078;-70
2023/05/22 02:22:12;;;;;;;6.40;3.45;;;19.50;69.30;;;;;;6181993;23;20086;-71
2023/05/22 02:24:40;;;;;;;4.50;2.40;;;19.50;69.30;;;;;;6180887;23;20013;-70
2023/05/22 02:27:06;;;;;;;3.90;3.05;;;19.40;69.40;;;;;;6181395;23;20009;-68
2023/05/22 02:29:32;;;;;;;3.70;3.22;;;19.40;69.40;;;;;;6180604;23;20729;-68
2023/05/22 02:31:57;;;;;;;5.60;3.00;;;19.40;69.40;;;;;;6178464;23;20009;-68
2023/05/22 02:34:23;;;;;;;4.90;3.00;;;19.40;69.40;;;;;;6151845;23;20489;-68
2023/05/22 02:36:49;;;;;;;3.88;2.88;;;19.30;69.50;;;;;;6181476;23;20036;-68
2023/05/22 02:39:16;;;;;;;5.40;2.85;;;19.30;69.60;;;;;;6179996;23;20064;-68
2023/05/22 02:41:42;;;;;;;6.65;3.00;;;19.30;69.50;;;;;;6180697;23;20013;-68
2023/05/22 02:44:08;;;;;;;4.72;2.70;;;19.30;69.60;;;;;;6180839;23;20023;-68
2023/05/22 02:46:33;;;;;;;5.32;3.17;;;19.20;69.60;;;;;;6181173;23;20443;-72
2023/05/22 02:48:59;;;;;;;3.80;2.47;;;19.20;69.70;;;;;;6182061;23;20091;-72
2023/05/22 02:51:24;;;;;;;6.82;2.88;;;19.20;69.90;;;;;;6179916;23;20020;-72
2023/05/22 02:53:51;;;;;;;5.55;2.88;;;19.20;69.80;;;;;;6181147;23;20327;-73
2023/05/22 02:56:17;;;;;;;4.00;2.85;;;19.10;69.90;;;;;;6181458;23;20012;-72
2023/05/22 02:58:43;;;;;;;4.32;2.85;;;19.10;69.90;;;;;;6154189;23;20375;-73
2023/05/22 03:01:09;;;;;;;4.97;2.97;;;19.10;70.00;;;;;;6153171;23;20009;-72
2023/05/22 03:03:35;;;;;;;5.07;3.22;;;19.10;70.20;;;;;;6180523;23;20331;-73
2023/05/22 03:06:02;;;;;;;4.45;2.90;;;19.00;70.20;;;;;;6181427;23;20021;-72
2023/05/22 03:08:30;;;;;;;4.10;2.70;;;19.00;70.20;;;;;;6153877;23;20005;-72
2023/05/22 03:10:57;;;;;;;4.28;3.15;;;19.00;70.40;;;;;;6155074;23;20116;-72
2023/05/22 03:13:23;;;;;;;5.32;3.13;;;19.00;70.40;;;;;;6182912;23;20043;-72
2023/05/22 03:15:49;;;;;;;6.18;2.88;;;19.00;70.50;;;;;;6156867;23;20005;-73
2023/05/22 03:18:15;;;;;;;9.77;3.28;;;18.90;70.60;;;;;;6181547;23;20052;-73
2023/05/22 03:20:41;;;;;;;4.70;3.15;;;18.90;70.80;;;;;;6182625;23;20005;-73
2023/05/22 03:23:06;;;;;;;5.30;3.03;;;18.90;70.80;;;;;;6182535;23;20188;-73
2023/05/22 03:25:32;;;;;;;5.10;2.92;;;18.90;70.80;;;;;;6155547;23;20024;-72
2023/05/22 03:27:58;;;;;;;4.35;3.22;;;18.80;70.70;;;;;;6182442;23;20416;-73
2023/05/22 03:30:23;;;;;;;6.43;3.30;;;18.80;70.90;;;;;;6182075;23;20442;-69
2023/05/22 03:32:51;;;;;;;5.07;3.03;;;18.80;71.10;;;;;;6182648;23;20453;-71
2023/05/22 03:35:18;;;;;;;5.15;3.15;;;18.80;71.20;;;;;;6178799;23;20391;-71
2023/05/22 03:37:45;;;;;;;4.93;2.97;;;18.80;71.30;;;;;;6182514;23;20024;-71
2023/05/22 03:40:11;;;;;;;4.68;3.22;;;18.80;71.30;;;;;;6154477;23;20047;-71
2023/05/22 03:42:37;;;;;;;5.35;2.80;;;18.80;71.40;;;;;;6182463;23;20056;-70
2023/05/22 03:45:02;;;;;;;5.53;3.38;;;18.80;71.50;;;;;;6181978;23;20024;-70
2023/05/22 03:47:28;;;;;;;4.22;2.90;;;18.80;71.60;;;;;;6183792;23;20407;-70
2023/05/22 03:49:55;;;;;;;7.85;3.50;;;18.80;71.60;;;;;;6181649;23;20072;-69
2023/05/22 03:52:21;;;;;;;7.00;3.35;;;18.80;71.60;;;;;;6181533;23;20374;-69
2023/05/22 03:54:47;;;;;;;5.28;3.00;;;18.80;72.00;;;;;;6156262;23;20070;-70
2023/05/22 03:57:13;;;;;;;5.43;3.05;;;18.80;72.00;;;;;;6154855;23;20017;-70
2023/05/22 03:59:39;;;;;;;9.05;3.28;;;18.80;72.10;;;;;;6181080;23;20147;-70
2023/05/22 04:02:05;;;;;;;4.88;3.05;;;18.80;72.10;;;;;;6181852;23;20040;-70
2023/05/22 04:04:32;;;;;;;5.70;3.03;;;18.80;72.20;;;;;;6181940;23;20608;-72
2023/05/22 04:06:58;;;;;;;6.47;2.97;;;18.80;72.30;;;;;;6182331;23;20031;-71
2023/05/22 04:09:29;;;;;;;6.18;2.80;;;18.70;72.30;;;;;;6155698;23;20016;-71
2023/05/22 04:11:55;;;;;;;5.75;3.30;;;18.70;72.50;;;;;;6182159;23;20016;-72
2023/05/22 04:14:21;;;;;;;7.43;3.63;;;18.70;72.50;;;;;;6182033;23;20012;-72
2023/05/22 04:16:46;;;;;;;4.90;3.35;;;18.70;72.70;;;;;;6182440;23;20009;-72
2023/05/22 04:19:12;;;;;;;5.70;3.22;;;18.70;72.70;;;;;;6155028;23;20047;-72
2023/05/22 04:21:38;;;;;;;5.22;2.53;;;18.80;73.10;;;;;;6155977;23;20016;-73
2023/05/22 04:24:05;;;;;;;5.68;2.75;;;18.80;73.20;;;;;;6181296;23;20335;-71
2023/05/22 04:26:34;;;;;;;7.88;4.35;;;18.80;73.00;;;;;;6181793;23;20021;-71
2023/05/22 04:29:01;;;;;;;4.90;3.22;;;18.80;73.10;;;;;;6181841;23;20005;-73
2023/05/22 04:31:26;;;;;;;8.93;3.60;;;18.90;73.10;;;;;;6182083;23;20101;-73
2023/05/22 04:33:53;;;;;;;5.88;3.08;;;18.90;73.10;;;;;;6155112;23;20033;-73
2023/05/22 04:36:21;;;;;;;7.85;3.42;;;19.00;73.10;;;;;;6182053;23;20089;-73
2023/05/22 04:38:47;;;;;;;7.53;3.25;;;19.00;73.30;;;;;;6181190;23;20013;-73
2023/05/22 04:41:16;;;;;;;6.18;3.75;;;19.10;73.20;;;;;;6155760;23;20361;-72
2023/05/22 04:43:43;;;;;;;7.93;3.65;;;19.10;73.50;;;;;;6181884;23;20474;-73
2023/05/22 04:46:08;;;;;;;5.45;3.20;;;19.20;73.50;;;;;;6181744;23;20440;-73
2023/05/22 04:48:35;;;;;;;7.95;3.13;;;19.30;73.70;;;;;;6182154;23;20005;-72
2023/05/22 04:51:01;;;;;;;6.93;3.92;;;19.30;74.00;;;;;;6155280;23;20481;-72
2023/05/22 04:53:29;;;;;;;6.85;3.05;;;19.40;73.50;;;;;;6154222;23;20005;-72
2023/05/22 04:55:55;;;;;;;4.30;2.83;;;19.40;73.40;;;;;;6181328;23;20024;-73
2023/05/22 04:58:22;;;;;;;6.47;3.25;;;19.40;73.20;;;;;;6155747;23;20107;-72
2023/05/22 05:00:48;;;;;;;11.30;3.35;;;19.40;73.20;;;;;;6182057;23;20005;-72
2023/05/22 05:03:14;;;;;;;7.72;4.10;;;19.50;73.50;;;;;;6181280;23;20304;-72
2023/05/22 05:05:39;;;;;;;4.85;2.65;;;19.50;73.30;;;;;;6180851;23;20013;-73
2023/05/22 05:08:05;;;;;;;4.43;2.70;;;19.50;74.00;;;;;;6155083;23;20016;-73
2023/05/22 05:10:31;;;;;;;5.43;3.17;;;19.50;73.60;;;;;;6181445;23;20063;-72
2023/05/22 05:12:56;;;;;;;3.70;2.60;;;19.60;73.50;;;;;;6181941;23;20088;-72
2023/05/22 05:15:22;;;;;;;6.40;3.15;;;19.60;73.70;;;;;;6181261;23;20051;-72
2023/05/22 05:17:48;;;;;;;5.75;3.45;;;19.60;73.40;;;;;;6180926;23;20478;-72
2023/05/22 05:20:14;;;;;;;4.85;3.20;;;19.60;73.30;;;;;;6154840;23;20009;-72
2023/05/22 05:22:39;;;;;;;5.22;3.00;;;19.60;73.40;;;;;;6181088;23;20423;-72
2023/05/22 05:25:06;;;;;;;8.25;3.70;;;19.60;73.20;;;;;;6181431;23;20023;-72
2023/05/22 05:27:32;;;;;;;4.78;3.47;;;19.60;73.30;;;;;;6181632;23;20391;-72
2023/05/22 05:29:57;;;;;;;4.60;3.10;;;19.60;73.40;;;;;;6153968;23;20015;-72
2023/05/22 05:32:23;;;;;;;7.55;3.60;;;19.60;73.60;;;;;;6181147;23;20441;-72
2023/05/22 05:34:49;;;;;;;7.30;4.30;;;19.60;73.60;;;;;;6180726;23;20016;-73
2023/05/22 05:37:15;;;;;;;7.75;3.00;;;19.60;73.60;;;;;;6182307;23;20604;-71
2023/05/22 05:39:40;;;;;;;7.25;3.45;;;19.60;73.60;;;;;;6181613;23;20009;-71
2023/05/22 05:42:06;;;;;;;9.25;3.80;;;19.60;73.60;;;;;;6181825;23;20012;-71
2023/05/22 05:44:31;;;;;;;5.47;3.13;;;19.60;73.60;;;;;;6180914;23;20464;-71
2023/05/22 05:46:57;;;;;;;7.15;3.88;;;19.50;73.70;;;;;;6154154;23;20309;-71
2023/05/22 05:49:23;;;;;;;5.93;3.38;;;19.50;73.90;;;;;;6180987;23;20446;-72
2023/05/22 05:51:48;;;;;;;5.15;3.20;;;19.60;74.00;;;;;;6180598;23;20008;-71
2023/05/22 05:54:14;;;;;;;5.43;3.55;;;19.60;74.30;;;;;;6154344;23;20482;-71
2023/05/22 05:56:40;;;;;;;6.70;3.53;;;19.60;74.30;;;;;;6181584;23;20012;-70
2023/05/22 05:59:06;;;;;;;7.30;3.53;;;19.70;74.50;;;;;;6180595;23;20041;-70
2023/05/22 06:01:34;;;;;;;8.07;3.95;;;19.80;74.40;;;;;;6180819;23;20001;-70
2023/05/22 06:04:01;;;;;;;5.18;3.20;;;19.80;74.50;;;;;;6153760;23;20009;-70
2023/05/22 06:06:29;;;;;;;6.03;3.60;;;19.90;74.30;;;;;;6181072;23;20347;-70
2023/05/22 06:08:55;;;;;;;5.97;3.65;;;20.00;74.30;;;;;;6181411;23;20435;-70
2023/05/22 06:11:22;;;;;;;4.93;3.33;;;20.00;74.40;;;;;;6181480;23;20009;-70
2023/05/22 06:13:47;;;;;;;5.93;3.50;;;20.10;74.50;;;;;;6180023;23;20001;-70
2023/05/22 06:16:13;;;;;;;8.98;3.30;;;20.10;74.50;;;;;;6181078;23;20005;-71
2023/05/22 06:18:39;;;;;;;8.07;3.60;;;20.10;74.40;;;;;;6181372;23;20423;-68
2023/05/22 06:21:05;;;;;;;7.07;3.42;;;20.20;74.30;;;;;;6154784;23;20009;-71
2023/05/22 06:23:31;;;;;;;5.75;3.63;;;20.20;74.10;;;;;;6180986;23;20035;-71
2023/05/22 06:25:57;;;;;;;8.77;3.53;;;20.30;74.70;;;;;;6181580;23;20487;-73
2023/05/22 06:28:22;;;;;;;5.50;3.42;;;20.30;74.20;;;;;;6181676;23;20382;-71
2023/05/22 06:30:48;;;;;;;9.55;3.58;;;20.40;74.20;;;;;;6178119;23;20424;-72
2023/05/22 06:33:13;;;;;;;10.18;3.83;;;20.40;73.90;;;;;;6176582;23;20016;-67
2023/05/22 06:35:39;;;;;;;6.82;4.00;;;20.50;74.20;;;;;;6179162;23;20011;-66
2023/05/22 06:38:05;;;;;;;7.78;4.05;;;20.60;74.30;;;;;;6178542;23;20419;-71
2023/05/22 06:40:31;;;;;;;9.25;3.92;;;20.60;74.20;;;;;;6179983;23;20020;-70
2023/05/22 06:42:58;;;;;;;5.72;3.47;;;20.70;74.40;;;;;;6179896;23;20005;-71
2023/05/22 06:45:23;;;;;;;8.00;3.72;;;20.70;74.20;;;;;;6152865;23;20059;-71
2023/05/22 06:47:53;;;;;;;12.35;4.22;;;20.70;74.10;;;;;;6181850;23;20084;-70
2023/05/22 06:50:20;;;;;;;9.55;3.47;;;20.80;74.30;;;;;;6181638;23;20005;-71
2023/05/22 06:52:45;;;;;;;7.07;3.72;;;20.80;74.10;;;;;;6181699;23;20448;-72
2023/05/22 06:55:11;;;;;;;5.53;3.03;;;20.80;74.20;;;;;;6180895;23;20013;-71
2023/05/22 06:57:37;;;;;;;4.82;3.22;;;20.90;74.40;;;;;;6181480;23;20005;-71
2023/05/22 07:00:11;;;;;;;5.50;3.70;;;21.00;74.70;;;;;;6179587;23;20431;-72
2023/05/22 07:02:37;;;;;;;6.50;3.88;;;21.00;73.90;;;;;;6178942;23;20336;-71
2023/05/22 07:05:03;;;;;;;9.93;4.10;;;21.10;73.90;;;;;;6179652;23;20009;-71
2023/05/22 07:07:29;;;;;;;7.20;3.17;;;21.20;74.10;;;;;;6181003;23;20004;-71
2023/05/22 07:09:55;;;;;;;7.13;3.38;;;21.20;74.30;;;;;;6181845;23;20036;-71
2023/05/22 07:12:24;;;;;;;6.50;3.72;;;21.30;74.40;;;;;;6182057;23;20005;-75
2023/05/22 07:14:51;;;;;;;6.30;3.70;;;21.30;74.10;;;;;;6179560;23;20019;-72
2023/05/22 07:17:17;;;;;;;6.03;3.15;;;21.40;74.40;;;;;;6182135;23;20055;-70
2023/05/22 07:19:43;;;;;;;5.30;3.50;;;21.40;74.20;;;;;;6181742;23;20009;-74
2023/05/22 07:22:08;;;;;;;7.28;3.75;;;21.40;74.20;;;;;;6178746;23;19997;-74
2023/05/22 07:24:34;;;;;;;6.82;3.60;;;21.50;74.20;;;;;;6176804;23;20104;-75
2023/05/22 07:27:00;;;;;;;7.03;3.80;;;21.60;74.30;;;;;;6182726;23;20379;-72
2023/05/22 07:29:25;;;;;;;4.75;3.65;;;21.60;74.10;;;;;;6182711;23;20012;-74
2023/05/22 07:31:51;;;;;;;5.10;3.45;;;21.70;74.40;;;;;;6182275;23;20016;-73
2023/05/22 07:34:16;;;;;;;5.57;3.47;;;21.80;74.60;;;;;;6182681;23;20009;-75
2023/05/22 07:36:42;;;;;;;5.65;3.35;;;21.80;74.30;;;;;;6183447;23;20040;-74
2023/05/22 07:39:08;;;;;;;6.70;3.80;;;21.90;74.10;;;;;;6182659;23;20005;-74
2023/05/22 07:41:34;;;;;;;8.05;3.70;;;21.90;74.00;;;;;;6182459;23;20060;-72
2023/05/22 07:44:00;;;;;;;8.35;3.95;;;21.90;73.80;;;;;;6181342;23;20447;-74
2023/05/22 07:46:25;;;;;;;6.82;4.00;;;22.00;74.00;;;;;;6181004;23;20013;-73
2023/05/22 07:48:51;;;;;;;5.88;3.65;;;22.00;74.10;;;;;;6182813;23;20423;-73
2023/05/22 07:51:16;;;;;;;6.93;3.05;;;22.10;74.10;;;;;;6182574;23;20009;-74
2023/05/22 07:53:42;;;;;;;5.35;3.78;;;22.10;74.30;;;;;;6155781;23;20439;-74
2023/05/22 07:56:08;;;;;;;4.60;2.90;;;22.20;74.20;;;;;;6180723;23;20005;-74
2023/05/22 07:58:33;;;;;;;5.65;3.92;;;22.20;73.90;;;;;;6153689;23;20009;-73
2023/05/22 08:01:00;;;;;;;5.78;3.63;;;22.30;73.80;;;;;;6180942;23;20005;-73
2023/05/22 08:03:26;;;;;;;5.97;3.55;;;22.40;73.60;;;;;;6181240;23;20383;-73
2023/05/22 08:05:51;;;;;;;5.13;3.28;;;22.40;73.70;;;;;;6181149;23;20013;-72
2023/05/22 08:08:17;;;;;;;6.70;3.53;;;22.50;73.50;;;;;;6180658;23;20442;-73
2023/05/22 08:10:43;;;;;;;5.03;3.38;;;22.50;73.40;;;;;;6181779;23;20066;-72
2023/05/22 08:13:09;;;;;;;7.90;3.67;;;22.60;73.50;;;;;;6181837;23;20052;-72
2023/05/22 08:15:34;;;;;;;6.65;3.20;;;22.70;73.50;;;;;;6182070;23;20009;-72
2023/05/22 08:18:00;;;;;;;7.85;3.35;;;22.80;73.10;;;;;;6181712;23;20141;-72
2023/05/22 08:20:26;;;;;;;5.57;2.95;;;22.90;72.90;;;;;;6182529;23;20005;-73
2023/05/22 08:22:53;;;;;;;6.93;3.60;;;23.00;72.80;;;;;;6181724;23;20004;-73
2023/05/22 08:25:18;;;;;;;4.97;3.22;;;23.10;72.60;;;;;;6179155;23;20024;-73
2023/05/22 08:27:44;;;;;;;6.25;3.08;;;23.10;72.20;;;;;;6180986;23;20005;-74
2023/05/22 08:30:10;;;;;;;8.30;3.03;;;23.30;72.10;;;;;;6179600;23;20028;-72
2023/05/22 08:32:35;;;;;;;5.82;3.20;;;23.40;72.10;;;;;;6181479;23;20009;-71
2023/05/22 08:35:01;;;;;;;7.15;2.90;;;23.50;72.20;;;;;;6179417;23;20035;-72
2023/05/22 08:37:27;;;;;;;8.02;3.22;;;23.60;71.50;;;;;;6146101;23;20009;-72
2023/05/22 08:39:52;;;;;;;5.05;3.22;;;23.70;71.10;;;;;;6179266;23;20009;-70
2023/05/22 08:42:18;;;;;;;5.35;3.47;;;23.80;71.00;;;;;;6180182;23;20479;-72
2023/05/22 08:44:44;;;;;;;7.32;3.20;;;23.90;70.60;;;;;;6180045;23;20021;-72
2023/05/22 08:47:12;;;;;;;5.85;3.28;;;23.90;70.40;;;;;;6153436;23;20001;-71
2023/05/22 08:49:39;;;;;;;5.00;3.28;;;24.00;70.80;;;;;;6181960;23;20005;-70
2023/05/22 08:52:21;;;;;;;7.63;3.30;;;24.00;70.50;;;;;;6154443;23;20451;-71
2023/05/22 08:54:53;;;;;;;4.95;3.22;;;24.10;70.70;;;;;;6180549;23;20020;-72
2023/05/22 08:57:19;;;;;;;4.57;3.05;;;24.20;70.30;;;;;;6181307;23;20005;-72
2023/05/22 08:59:46;;;;;;;4.25;2.83;;;24.30;70.00;;;;;;6180989;23;20340;-72
2023/05/22 09:02:12;;;;;;;5.28;2.53;;;24.40;69.80;;;;;;6181229;23;20005;-72
2023/05/22 09:04:41;;;;;;;6.18;3.25;;;24.50;69.10;;;;;;6177888;23;20427;-73
2023/05/22 09:07:07;;;;;;;5.95;2.92;;;24.60;69.00;;;;;;6180918;23;20009;-72
2023/05/22 09:09:37;;;;;;;6.13;2.97;;;24.70;69.20;;;;;;6180858;23;20001;-72
2023/05/22 09:12:06;;;;;;;5.78;3.05;;;24.80;69.10;;;;;;6181521;23;20009;-72
2023/05/22 09:14:41;;;;;;;9.05;2.88;;;24.90;69.10;;;;;;6179041;23;20395;-72
2023/05/22 09:17:08;;;;;;;5.88;2.92;;;25.00;68.40;;;;;;6181725;23;20005;-72
2023/05/22 09:19:34;;;;;;;9.90;3.53;;;25.00;68.00;;;;;;6180123;23;20091;-72
2023/05/22 09:22:05;;;;;;;5.55;2.70;;;25.10;68.10;;;;;;6180801;23;20044;-72
2023/05/22 09:24:36;;;;;;;8.98;3.80;;;25.20;67.50;;;;;;6179417;23;20374;-73
2023/05/22 09:27:05;;;;;;;9.75;3.40;;;25.20;67.40;;;;;;6181418;23;20335;-72
2023/05/22 09:29:31;;;;;;;4.60;2.78;;;25.30;67.70;;;;;;6181130;23;20009;-72
2023/05/22 09:31:58;;;;;;;5.32;2.72;;;25.40;67.00;;;;;;6181309;23;20462;-72
2023/05/22 09:34:28;;;;;;;6.43;3.00;;;25.50;66.50;;;;;;6180920;23;20009;-72
2023/05/22 09:37:02;;;;;;;8.77;2.70;;;25.60;66.70;;;;;;6181002;23;20013;-73
2023/05/22 09:39:42;;;;;;;5.13;2.05;;;25.60;66.60;;;;;;6181125;23;20072;-73
2023/05/22 09:42:10;;;;;;;10.27;3.72;;;25.70;65.90;;;;;;6181624;23;20004;-72
2023/05/22 09:44:36;;;;;;;4.43;2.35;;;25.80;65.60;;;;;;6180648;23;20021;-73
2023/05/22 09:47:02;;;;;;;4.35;2.85;;;25.90;65.40;;;;;;6154551;23;20008;-72
2023/05/22 09:49:28;;;;;;;13.13;3.20;;;25.90;65.20;;;;;;6179282;23;20032;-72
2023/05/22 09:51:54;;;;;;;6.30;3.17;;;25.90;65.40;;;;;;6181499;23;20013;-72
2023/05/22 09:54:24;;;;;;;9.57;2.88;;;25.90;65.10;;;;;;6180961;23;20005;-72
2023/05/22 09:56:56;;;;;;;10.32;3.03;;;26.00;65.50;;;;;;6181630;23;20001;-72
2023/05/22 09:59:28;;;;;;;4.18;2.72;;;26.00;65.00;;;;;;6153619;23;20347;-72
2023/05/22 10:01:54;;;;;;;3.90;2.60;;;26.00;64.80;;;;;;6181494;23;20036;-72
2023/05/22 10:04:21;;;;;;;6.28;2.70;;;26.10;64.40;;;;;;6180656;23;20427;-72
2023/05/22 10:06:50;;;;;;;4.25;2.85;;;26.10;64.60;;;;;;6180817;23;20423;-73
2023/05/22 10:09:18;;;;;;;3.83;2.88;;;26.20;64.00;;;;;;6154072;23;20009;-72
2023/05/22 10:11:45;;;;;;;4.15;2.90;;;26.20;63.80;;;;;;6180652;23;20335;-72
2023/05/22 10:14:11;;;;;;;11.77;2.97;;;26.20;64.10;;;;;;6181855;23;20016;-72
2023/05/22 10:16:37;;;;;;;4.93;2.30;;;26.30;64.10;;;;;;6180914;23;20036;-72
2023/05/22 10:19:04;;;;;;;4.95;2.90;;;26.30;63.90;;;;;;6154414;23;20318;-72
2023/05/22 10:21:31;;;;;;;4.03;2.67;;;26.40;63.60;;;;;;6182618;23;20013;-72
2023/05/22 10:23:59;;;;;;;8.13;3.40;;;26.40;63.20;;;;;;6155303;23;20010;-72
2023/05/22 10:26:26;;;;;;;11.50;4.07;;;26.50;63.20;;;;;;6183275;23;20017;-73
2023/05/22 10:29:03;;;;;;;7.45;3.10;;;26.50;63.20;;;;;;6182926;23;20009;-72
2023/05/22 10:31:52;;;;;;;15.25;3.70;;;26.60;63.00;;;;;;6183177;23;20005;-71
2023/05/22 10:34:43;;;;;;;17.33;3.80;;;26.60;63.10;;;;;;6182293;23;20019;-73
2023/05/22 10:37:26;;;;;;;12.85;3.42;;;26.60;62.50;;;;;;6182151;23;20470;-73
2023/05/22 10:40:07;;;;;;;5.80;3.10;;;26.60;62.50;;;;;;6182666;23;20016;-73
2023/05/22 10:42:36;;;;;;;7.28;2.75;;;26.60;62.30;;;;;;6156452;23;20013;-73
2023/05/22 10:45:03;;;;;;;8.02;3.55;;;26.70;62.00;;;;;;6181823;23;20060;-72
2023/05/22 10:47:28;;;;;;;4.78;2.65;;;26.70;62.10;;;;;;6183105;23;20005;-73
2023/05/22 10:50:10;;;;;;;5.03;3.05;;;26.70;61.10;;;;;;6182414;23;20068;-72
2023/05/22 10:52:37;;;;;;;5.68;2.70;;;26.80;61.60;;;;;;6182165;23;20019;-72
2023/05/22 10:55:08;;;;;;;12.63;3.17;;;26.70;61.00;;;;;;6182123;23;20004;-72
2023/05/22 10:57:36;;;;;;;5.22;2.53;;;26.80;61.60;;;;;;6156941;23;20047;-71
2023/05/22 11:00:08;;;;;;;7.40;4.22;;;26.80;61.00;;;;;;6182670;23;20005;-73
2023/05/22 11:02:38;;;;;;;6.63;2.85;;;26.80;60.50;;;;;;6183687;23;20028;-69
2023/05/22 11:05:24;;;;;;;5.05;2.38;;;26.80;59.60;;;;;;6182492;23;20398;-71
2023/05/22 11:07:50;;;;;;;6.90;2.35;;;26.80;59.50;;;;;;6182864;23;20056;-70
2023/05/22 11:10:25;;;;;;;19.98;3.38;;;26.80;59.30;;;;;;6182295;23;20410;-70
2023/05/22 11:13:11;;;;;;;5.57;2.50;;;26.80;59.10;;;;;;6183156;23;20288;-70
2023/05/22 11:15:44;;;;;;;9.35;2.78;;;26.80;59.60;;;;;;6180466;23;20016;-71
2023/05/22 11:18:11;;;;;;;10.15;3.47;;;26.80;59.70;;;;;;6183197;23;20434;-71
2023/05/22 11:20:38;;;;;;;5.35;2.97;;;26.80;59.00;;;;;;6154744;23;20386;-71
2023/05/22 11:23:08;;;;;;;5.57;2.63;;;26.80;59.30;;;;;;6155428;23;20008;-71
2023/05/22 11:25:36;;;;;;;5.75;2.40;;;26.80;58.70;;;;;;6155309;23;20021;-71
2023/05/22 11:28:06;;;;;;;10.75;2.80;;;26.80;58.30;;;;;;6155418;23;20032;-70
2023/05/22 11:30:33;;;;;;;4.15;2.38;;;26.80;58.00;;;;;;6181669;23;20017;-71
2023/05/22 11:33:00;;;;;;;4.88;2.58;;;26.80;57.90;;;;;;6182118;23;20063;-71
2023/05/22 11:35:26;;;;;;;5.25;2.72;;;26.80;57.90;;;;;;6181587;23;20039;-71
2023/05/22 11:37:53;;;;;;;8.88;2.63;;;26.80;57.70;;;;;;6155832;23;20013;-71
2023/05/22 11:40:20;;;;;;;4.28;2.25;;;26.80;57.70;;;;;;6174207;23;20080;-71
2023/05/22 11:42:46;;;;;;;11.10;3.30;;;26.80;57.40;;;;;;6173605;23;20036;-71
2023/05/22 11:45:13;;;;;;;10.00;2.90;;;26.90;57.50;;;;;;6174586;23;20044;-71
2023/05/22 11:47:39;;;;;;;6.03;3.00;;;26.80;57.40;;;;;;6174789;23;20439;-70
2023/05/22 11:50:08;;;;;;;3.33;1.98;;;26.80;56.70;;;;;;6174898;23;20084;-71
2023/05/22 11:52:35;;;;;;;5.80;2.90;;;26.70;56.10;;;;;;6174433;23;20009;-70
2023/05/22 11:55:04;;;;;;;6.13;2.85;;;26.70;56.40;;;;;;6174973;23;20009;-72
2023/05/22 11:57:30;;;;;;;4.30;2.40;;;26.70;56.10;;;;;;6147424;23;20005;-70
2023/05/22 12:00:00;;;;;;;7.15;2.67;;;26.50;55.60;;;;;;6175183;23;20012;-72
2023/05/22 12:02:26;;;;;;;3.00;2.13;;;26.50;55.70;;;;;;6146074;23;20009;-71
2023/05/22 12:04:55;;;;;;;5.57;2.33;;;26.50;55.70;;;;;;6174009;23;20104;-71
2023/05/22 12:07:40;;;;;;;4.63;2.08;;;26.40;55.50;;;;;;6172440;23;20020;-72
2023/05/22 12:10:26;;;;;;;8.75;2.47;;;26.50;55.60;;;;;;6172817;23;20339;-72
2023/05/22 12:13:12;;;;;;;5.15;2.25;;;26.50;55.70;;;;;;6170264;23;20390;-72
2023/05/22 12:15:59;;;;;;;3.15;2.20;;;26.60;55.70;;;;;;6150203;23;20008;-71
2023/05/22 12:18:45;;;;;;;5.38;2.38;;;26.70;55.40;;;;;;6170431;23;20012;-72
2023/05/22 12:21:32;;;;;;;4.90;2.60;;;26.70;54.80;;;;;;6169944;23;20448;-72
2023/05/22 12:24:22;;;;;;;3.20;2.17;;;26.70;54.50;;;;;;6171614;23;20092;-72
2023/05/22 12:27:09;;;;;;;6.20;2.42;;;26.80;54.00;;;;;;6148914;23;20017;-71
2023/05/22 12:29:55;;;;;;;5.93;2.50;;;26.70;53.90;;;;;;6169652;23;20276;-71
2023/05/22 12:32:47;;;;;;;3.38;2.13;;;26.60;53.90;;;;;;6169949;23;20013;-72
2023/05/22 12:35:33;;;;;;;4.53;2.00;;;26.50;53.70;;;;;;6171798;23;20084;-72
2023/05/22 12:38:21;;;;;;;4.75;2.50;;;26.50;53.90;;;;;;6149302;23;20091;-72
2023/05/22 12:41:06;;;;;;;5.50;2.38;;;26.50;53.90;;;;;;6169738;23;20004;-71
2023/05/22 12:43:52;;;;;;;3.80;2.38;;;26.50;53.80;;;;;;6149935;23;20025;-71
2023/05/22 12:46:40;;;;;;;4.47;2.70;;;26.60;53.90;;;;;;6169793;23;20475;-72
2023/05/22 12:49:26;;;;;;;5.45;2.30;;;26.70;53.60;;;;;;6171307;23;20009;-71
2023/05/22 12:52:12;;;;;;;6.70;2.50;;;26.80;53.40;;;;;;6170221;23;20164;-71
2023/05/22 12:54:58;;;;;;;4.22;2.30;;;26.80;53.20;;;;;;6170328;23;20012;-72